Time;durP1;ratioP1;P1;durP2;ratioP2;P2;SDS_P1;SDS_P2;PMS_P1;PMS_P2;Temp;Humidity;BMP_temperature;BMP_pressure;BME280_temperature;BME280_humidity;BME280_pressure;Samples;Min_cycle;Max_cycle;Signal;HPM_P1;HPM_P2
2023/05/10 00:00:54;;;;;;;8.45;5.68;;;12.60;99.90;;;;;;5135004;27;20232;-73
2023/05/10 00:03:20;;;;;;;10.32;5.97;;;12.50;99.90;;;;;;5135422;27;20182;-72
2023/05/10 00:05:46;;;;;;;10.00;5.78;;;12.50;99.90;;;;;;5134806;27;20674;-72
2023/05/10 00:08:11;;;;;;;8.35;5.32;;;12.50;99.90;;;;;;5135405;27;20167;-72
2023/05/10 00:10:37;;;;;;;8.38;5.47;;;12.50;99.90;;;;;;5134576;27;20604;-71
2023/05/10 00:13:03;;;;;;;6.85;5.30;;;12.50;99.90;;;;;;5133272;27;20223;-72
2023/05/10 00:15:30;;;;;;;7.40;5.53;;;12.40;99.90;;;;;;5134792;27;20640;-72
2023/05/10 00:17:56;;;;;;;8.38;5.18;;;12.50;99.90;;;;;;5134489;27;20191;-72
2023/05/10 00:20:22;;;;;;;7.25;5.10;;;12.40;99.90;;;;;;5134785;27;20191;-72
2023/05/10 00:22:48;;;;;;;7.45;4.95;;;12.40;99.90;;;;;;5134816;27;20256;-72
2023/05/10 00:25:14;;;;;;;9.52;5.63;;;12.40;99.90;;;;;;5133279;27;20168;-72
2023/05/10 00:27:39;;;;;;;9.13;5.75;;;12.50;99.90;;;;;;5134666;27;20264;-72
2023/05/10 00:30:06;;;;;;;7.22;5.30;;;12.40;99.90;;;;;;5134549;27;20648;-72
2023/05/10 00:32:32;;;;;;;7.45;5.20;;;12.40;99.90;;;;;;5134498;27;20183;-72
2023/05/10 00:34:58;;;;;;;8.02;5.40;;;12.40;99.90;;;;;;5134461;27;20172;-72
2023/05/10 00:37:24;;;;;;;6.82;5.25;;;12.40;99.90;;;;;;5133271;28;20262;-72
2023/05/10 00:39:49;;;;;;;8.23;5.03;;;12.40;99.90;;;;;;5134122;27;20203;-72
2023/05/10 00:42:15;;;;;;;8.82;5.72;;;12.40;99.90;;;;;;5138420;27;20195;-72
2023/05/10 00:44:41;;;;;;;9.90;5.90;;;12.40;99.90;;;;;;5139026;27;20172;-72
2023/05/10 00:47:07;;;;;;;9.52;5.53;;;12.50;99.90;;;;;;5137660;27;20255;-72
2023/05/10 00:49:34;;;;;;;7.97;5.25;;;12.50;99.90;;;;;;5138787;27;20179;-72
2023/05/10 00:52:01;;;;;;;7.28;4.97;;;12.40;99.90;;;;;;5137443;27;20199;-72
2023/05/10 00:54:27;;;;;;;7.85;5.05;;;12.40;99.90;;;;;;5138585;27;20167;-72
2023/05/10 00:56:53;;;;;;;7.32;4.80;;;12.40;99.90;;;;;;5137607;27;20179;-72
2023/05/10 00:59:19;;;;;;;7.80;4.97;;;12.30;99.90;;;;;;5138715;27;20264;-71
2023/05/10 01:01:46;;;;;;;6.47;4.75;;;12.30;99.90;;;;;;5138035;27;20246;-73
2023/05/10 01:04:12;;;;;;;7.05;5.07;;;12.30;99.90;;;;;;5138721;27;20167;-73
2023/05/10 01:06:39;;;;;;;6.78;4.78;;;12.30;99.90;;;;;;5139201;27;20228;-73
2023/05/10 01:09:06;;;;;;;10.80;5.60;;;12.40;99.90;;;;;;5138931;27;20197;-73
2023/05/10 01:11:33;;;;;;;6.80;4.78;;;12.40;99.90;;;;;;5139497;27;20719;-73
2023/05/10 01:13:59;;;;;;;8.95;4.93;;;12.40;99.90;;;;;;5140124;27;20184;-73
2023/05/10 01:16:27;;;;;;;7.82;5.28;;;12.30;99.90;;;;;;5139942;27;20175;-73
2023/05/10 01:18:53;;;;;;;6.88;5.10;;;12.30;99.90;;;;;;5140006;27;20648;-73
2023/05/10 01:21:40;;;;;;;7.50;5.00;;;12.40;99.90;;;;;;5141354;27;20652;-70
2023/05/10 01:24:44;;;;;;;6.70;4.45;;;12.40;99.90;;;;;;5141314;27;20156;-73
2023/05/10 01:27:43;;;;;;;6.28;4.80;;;12.40;99.90;;;;;;5139650;27;20171;-73
2023/05/10 01:30:30;;;;;;;6.05;4.07;;;12.30;99.90;;;;;;5156746;27;20188;-73
2023/05/10 01:33:11;;;;;;;7.80;4.88;;;12.30;99.90;;;;;;5156811;27;20179;-73
2023/05/10 01:35:42;;;;;;;9.13;5.35;;;12.30;99.90;;;;;;5138777;27;20175;-74
2023/05/10 01:38:37;;;;;;;8.38;4.85;;;12.30;99.90;;;;;;5139519;27;20278;-70
2023/05/10 01:41:18;;;;;;;6.47;4.43;;;12.30;99.90;;;;;;5137896;27;20668;-70
2023/05/10 01:43:57;;;;;;;7.38;4.63;;;12.30;99.90;;;;;;5138378;27;20160;-70
2023/05/10 01:46:36;;;;;;;11.02;5.93;;;12.30;99.90;;;;;;5137669;27;20174;-70
2023/05/10 01:49:08;;;;;;;11.30;6.05;;;12.30;99.90;;;;;;5137313;27;20227;-70
2023/05/10 01:51:51;;;;;;;9.48;5.47;;;12.30;99.90;;;;;;5137331;27;20647;-70
2023/05/10 01:54:19;;;;;;;12.98;5.88;;;12.30;99.90;;;;;;5137497;27;20165;-72
2023/05/10 01:56:50;;;;;;;10.20;5.78;;;12.30;99.90;;;;;;5137177;27;20178;-72
2023/05/10 01:59:19;;;;;;;13.13;6.22;;;12.30;99.90;;;;;;5136037;27;20238;-72
2023/05/10 02:01:47;;;;;;;11.02;6.05;;;12.30;99.90;;;;;;5135880;27;20563;-72
2023/05/10 02:04:17;;;;;;;10.07;5.97;;;12.30;99.90;;;;;;5136002;27;20245;-72
2023/05/10 02:06:45;;;;;;;11.57;6.63;;;12.30;99.90;;;;;;5137243;27;20192;-72
2023/05/10 02:09:13;;;;;;;17.05;7.78;;;12.30;99.90;;;;;;5137541;27;20175;-72
2023/05/10 02:11:41;;;;;;;16.10;8.32;;;12.30;99.90;;;;;;5137079;27;20304;-72
2023/05/10 02:14:11;;;;;;;16.35;7.90;;;12.30;99.90;;;;;;5135882;27;20625;-72
2023/05/10 02:16:39;;;;;;;13.43;7.88;;;12.30;99.90;;;;;;5137178;27;20179;-72
2023/05/10 02:19:06;;;;;;;14.50;8.18;;;12.30;99.90;;;;;;5135717;27;20204;-72
2023/05/10 02:21:33;;;;;;;17.50;8.57;;;12.30;99.90;;;;;;5136872;27;20187;-72
2023/05/10 02:24:00;;;;;;;16.15;8.57;;;12.30;99.90;;;;;;5137496;27;20636;-72
2023/05/10 02:26:27;;;;;;;22.05;9.68;;;12.30;99.90;;;;;;5136858;27;20216;-72
2023/05/10 02:28:54;;;;;;;18.55;10.23;;;12.30;99.90;;;;;;5136946;27;20172;-72
2023/05/10 02:31:21;;;;;;;17.50;9.30;;;12.30;99.90;;;;;;5135368;27;20195;-72
2023/05/10 02:33:48;;;;;;;18.48;10.07;;;12.40;99.90;;;;;;5137004;27;20624;-71
2023/05/10 02:36:16;;;;;;;18.38;9.93;;;12.40;99.90;;;;;;5135251;27;20652;-72
2023/05/10 02:38:43;;;;;;;18.40;10.25;;;12.40;99.90;;;;;;5136772;27;20290;-72
2023/05/10 02:41:11;;;;;;;18.88;11.13;;;12.40;99.90;;;;;;5135287;27;20223;-72
2023/05/10 02:43:39;;;;;;;18.55;10.80;;;12.30;99.90;;;;;;5135341;27;20176;-71
2023/05/10 02:46:05;;;;;;;17.33;10.30;;;12.40;99.90;;;;;;5135262;27;20674;-71
2023/05/10 02:48:31;;;;;;;19.42;10.90;;;12.30;99.90;;;;;;5136877;27;20176;-71
2023/05/10 02:51:04;;;;;;;17.05;10.18;;;12.30;99.90;;;;;;5139110;27;20196;-71
2023/05/10 02:53:37;;;;;;;17.58;9.68;;;12.20;99.90;;;;;;5136760;27;20163;-69
2023/05/10 02:56:15;;;;;;;14.50;7.80;;;12.20;99.90;;;;;;5136667;27;20168;-73
2023/05/10 02:58:41;;;;;;;13.23;7.32;;;12.20;99.90;;;;;;5136646;27;20184;-71
2023/05/10 03:01:07;;;;;;;10.75;6.88;;;12.10;99.90;;;;;;5140694;27;20234;-71
2023/05/10 03:03:33;;;;;;;9.98;5.80;;;12.10;99.90;;;;;;5136665;27;20164;-71
2023/05/10 03:05:59;;;;;;;8.80;6.03;;;12.10;99.90;;;;;;5136423;27;20175;-71
2023/05/10 03:08:25;;;;;;;8.15;5.30;;;12.00;99.90;;;;;;5136105;27;20172;-71
2023/05/10 03:11:11;;;;;;;7.32;5.70;;;12.00;99.90;;;;;;5134686;27;20195;-71
2023/05/10 03:14:04;;;;;;;8.85;5.60;;;12.00;99.90;;;;;;5128433;27;20278;-71
2023/05/10 03:16:41;;;;;;;8.45;5.50;;;12.00;99.90;;;;;;5136435;27;20160;-71
2023/05/10 03:19:15;;;;;;;8.23;5.75;;;11.90;99.90;;;;;;5136153;27;20195;-70
2023/05/10 03:21:47;;;;;;;8.13;5.30;;;11.90;99.90;;;;;;5134649;27;20571;-71
2023/05/10 03:24:15;;;;;;;10.27;6.03;;;11.80;99.90;;;;;;5135941;27;20628;-71
2023/05/10 03:26:44;;;;;;;8.60;4.97;;;11.90;99.90;;;;;;5135630;27;20268;-71
2023/05/10 03:29:12;;;;;;;9.75;6.13;;;11.80;99.90;;;;;;5135735;27;20308;-71
2023/05/10 03:31:39;;;;;;;8.48;5.93;;;11.80;99.90;;;;;;5134871;27;20234;-71
2023/05/10 03:34:04;;;;;;;8.77;5.93;;;11.80;99.90;;;;;;5136198;27;20228;-71
2023/05/10 03:36:30;;;;;;;10.52;5.85;;;11.80;99.90;;;;;;5135879;27;20180;-71
2023/05/10 03:38:56;;;;;;;9.25;6.10;;;11.80;99.90;;;;;;5136218;27;20202;-71
2023/05/10 03:41:22;;;;;;;9.13;6.07;;;11.70;99.90;;;;;;5134038;27;20651;-71
2023/05/10 03:43:47;;;;;;;9.23;6.10;;;11.70;99.90;;;;;;5135450;27;20251;-71
2023/05/10 03:46:13;;;;;;;8.90;6.20;;;11.80;99.90;;;;;;5135310;27;20194;-71
2023/05/10 03:48:39;;;;;;;9.63;6.30;;;11.80;99.90;;;;;;5134039;27;20228;-71
2023/05/10 03:51:04;;;;;;;9.00;5.75;;;11.70;99.90;;;;;;5133954;27;20355;-71
2023/05/10 03:53:30;;;;;;;9.95;6.47;;;11.70;99.90;;;;;;5134219;27;20176;-71
2023/05/10 03:55:56;;;;;;;9.73;6.13;;;11.70;99.90;;;;;;5135227;27;20164;-71
2023/05/10 03:58:22;;;;;;;9.57;5.90;;;11.70;99.90;;;;;;5133813;27;20199;-71
2023/05/10 04:00:47;;;;;;;8.50;5.90;;;11.70;99.90;;;;;;5135131;27;20187;-72
2023/05/10 04:03:14;;;;;;;10.15;6.22;;;11.70;99.90;;;;;;5134075;27;20172;-71
2023/05/10 04:05:40;;;;;;;9.88;5.88;;;11.70;99.90;;;;;;5135087;27;20171;-71
2023/05/10 04:08:06;;;;;;;12.27;6.25;;;11.70;99.90;;;;;;5135044;27;20232;-71
2023/05/10 04:10:32;;;;;;;10.23;6.00;;;11.80;99.90;;;;;;5135506;27;20175;-71
2023/05/10 04:12:58;;;;;;;9.20;5.68;;;11.70;99.90;;;;;;5134999;27;20176;-71
2023/05/10 04:15:24;;;;;;;9.77;5.95;;;11.80;99.90;;;;;;5132876;27;20172;-72
2023/05/10 04:17:50;;;;;;;13.88;7.28;;;11.70;99.90;;;;;;5133535;27;20172;-71
2023/05/10 04:20:16;;;;;;;18.50;9.02;;;11.70;99.90;;;;;;5135141;27;20176;-71
2023/05/10 04:22:41;;;;;;;13.95;8.55;;;11.80;99.90;;;;;;5134817;27;20720;-71
2023/05/10 04:25:08;;;;;;;23.63;13.20;;;11.80;99.90;;;;;;5135297;27;20247;-71
2023/05/10 04:27:33;;;;;;;21.55;12.00;;;11.80;99.90;;;;;;5135004;27;20217;-71
2023/05/10 04:29:59;;;;;;;15.07;10.27;;;11.80;99.90;;;;;;5134615;27;20171;-71
2023/05/10 04:32:25;;;;;;;25.42;12.18;;;11.90;99.90;;;;;;5134859;27;20610;-71
2023/05/10 04:34:52;;;;;;;25.58;13.10;;;12.00;99.90;;;;;;5135392;27;20236;-71
2023/05/10 04:37:17;;;;;;;22.88;13.07;;;12.00;99.90;;;;;;5134902;27;20167;-71
2023/05/10 04:39:43;;;;;;;23.73;13.40;;;12.00;99.90;;;;;;5134653;27;20206;-71
2023/05/10 04:42:09;;;;;;;26.90;14.93;;;12.00;99.90;;;;;;5134457;27;20187;-71
2023/05/10 04:44:36;;;;;;;25.42;13.30;;;11.90;99.90;;;;;;5134922;27;20164;-71
2023/05/10 04:47:02;;;;;;;27.45;14.35;;;11.90;99.90;;;;;;5134691;27;20187;-71
2023/05/10 04:49:29;;;;;;;31.33;16.77;;;11.90;99.90;;;;;;5134943;27;20244;-72
2023/05/10 04:51:55;;;;;;;32.50;17.23;;;11.90;99.90;;;;;;5135471;27;20643;-71
2023/05/10 04:54:21;;;;;;;37.05;17.63;;;11.90;99.90;;;;;;5134875;27;20256;-71
2023/05/10 04:56:47;;;;;;;33.65;17.83;;;11.90;99.90;;;;;;5134911;27;20222;-71
2023/05/10 04:59:13;;;;;;;36.95;18.88;;;12.00;99.90;;;;;;5134636;27;20200;-72
2023/05/10 05:01:39;;;;;;;43.83;19.25;;;12.00;99.90;;;;;;5133028;28;20215;-71
2023/05/10 05:04:04;;;;;;;48.25;20.35;;;12.00;99.90;;;;;;5134455;27;20168;-71
2023/05/10 05:06:30;;;;;;;38.97;18.08;;;12.00;99.90;;;;;;5134620;27;20660;-72
2023/05/10 05:08:56;;;;;;;43.05;19.80;;;12.00;99.90;;;;;;5133498;28;20183;-71
2023/05/10 05:11:22;;;;;;;45.28;20.05;;;12.00;99.90;;;;;;5135228;27;20200;-73
2023/05/10 05:13:49;;;;;;;42.72;20.25;;;11.90;99.90;;;;;;5136266;27;20212;-73
2023/05/10 05:16:14;;;;;;;43.30;19.15;;;11.90;99.90;;;;;;5133873;28;20186;-73
2023/05/10 05:18:40;;;;;;;52.53;21.77;;;11.90;99.90;;;;;;5135442;27;20249;-73
2023/05/10 05:21:16;;;;;;;45.38;19.92;;;11.90;99.90;;;;;;5136875;27;20190;-71
2023/05/10 05:23:42;;;;;;;45.90;20.80;;;11.90;99.90;;;;;;5137952;28;20195;-67
2023/05/10 05:26:08;;;;;;;51.63;21.75;;;11.80;99.90;;;;;;5137340;27;20164;-68
2023/05/10 05:28:37;;;;;;;45.55;21.42;;;11.90;99.90;;;;;;5138614;27;20221;-72
2023/05/10 05:31:03;;;;;;;45.45;20.25;;;11.80;99.90;;;;;;5139632;27;20244;-69
2023/05/10 05:33:29;;;;;;;47.47;21.63;;;11.80;99.90;;;;;;5137294;27;20171;-68
2023/05/10 05:35:55;;;;;;;51.10;21.05;;;11.90;99.90;;;;;;5138402;27;20187;-69
2023/05/10 05:38:20;;;;;;;60.72;22.90;;;11.90;99.90;;;;;;5138195;27;20200;-68
2023/05/10 05:40:46;;;;;;;57.92;21.80;;;11.90;99.90;;;;;;5137951;27;20232;-69
2023/05/10 05:43:15;;;;;;;50.45;22.33;;;12.00;99.90;;;;;;5136903;27;20176;-68
2023/05/10 05:45:41;;;;;;;53.55;22.63;;;12.00;99.90;;;;;;5138325;27;20255;-68
2023/05/10 05:48:07;;;;;;;60.38;22.80;;;12.00;99.90;;;;;;5137865;27;20272;-69
2023/05/10 05:50:33;;;;;;;52.33;22.20;;;12.10;99.90;;;;;;5137833;27;20619;-69
2023/05/10 05:52:58;;;;;;;61.55;24.35;;;12.20;99.90;;;;;;5136660;27;20586;-69
2023/05/10 05:55:25;;;;;;;62.83;25.35;;;12.10;99.90;;;;;;5137365;27;20164;-69
2023/05/10 05:57:51;;;;;;;59.53;25.10;;;12.20;99.90;;;;;;5138014;27;20201;-69
2023/05/10 06:00:17;;;;;;;76.00;26.35;;;12.10;99.90;;;;;;5137910;27;20176;-69
2023/05/10 06:02:43;;;;;;;69.60;27.27;;;12.20;99.90;;;;;;5136233;27;20203;-69
2023/05/10 06:05:11;;;;;;;70.00;26.20;;;12.20;99.90;;;;;;5135984;27;20647;-69
2023/05/10 06:07:37;;;;;;;69.25;28.10;;;12.10;99.90;;;;;;5135874;27;20172;-69
2023/05/10 06:10:03;;;;;;;68.68;28.05;;;12.20;99.90;;;;;;5137575;27;20206;-69
2023/05/10 06:12:29;;;;;;;77.40;30.65;;;12.20;99.90;;;;;;5135862;27;20222;-72
2023/05/10 06:14:54;;;;;;;77.20;29.80;;;12.30;99.90;;;;;;5137289;27;20648;-72
2023/05/10 06:17:21;;;;;;;75.22;31.20;;;12.30;99.90;;;;;;5137422;27;20521;-72
2023/05/10 06:19:47;;;;;;;94.90;33.10;;;12.40;99.90;;;;;;5138042;27;20226;-72
2023/05/10 06:22:13;;;;;;;97.97;34.78;;;12.40;99.90;;;;;;5136312;27;20590;-72
2023/05/10 06:24:38;;;;;;;86.47;31.88;;;12.40;99.90;;;;;;5136728;27;20529;-72
2023/05/10 06:27:05;;;;;;;105.65;35.10;;;12.40;99.90;;;;;;5135365;27;20179;-72
2023/05/10 06:29:31;;;;;;;85.22;34.10;;;12.40;99.90;;;;;;5135445;27;20183;-72
2023/05/10 06:31:57;;;;;;;85.95;34.10;;;12.30;99.90;;;;;;5135360;27;20204;-72
2023/05/10 06:34:22;;;;;;;87.63;32.78;;;12.30;99.90;;;;;;5135530;27;20176;-72
2023/05/10 06:36:48;;;;;;;93.90;34.20;;;12.40;99.90;;;;;;5136452;27;20175;-72
2023/05/10 06:39:14;;;;;;;88.38;34.28;;;12.40;99.90;;;;;;5135889;27;20257;-72
2023/05/10 06:41:40;;;;;;;98.22;34.85;;;12.40;99.90;;;;;;5136423;27;20253;-72
2023/05/10 06:44:06;;;;;;;80.82;34.20;;;12.40;99.90;;;;;;5134873;27;20179;-72
2023/05/10 06:46:31;;;;;;;100.88;36.10;;;12.40;99.90;;;;;;5136119;27;20168;-72
2023/05/10 06:48:57;;;;;;;92.32;35.35;;;12.50;99.90;;;;;;5136241;27;20656;-73
2023/05/10 06:51:23;;;;;;;99.97;36.65;;;12.60;99.90;;;;;;5136816;27;20188;-72
2023/05/10 06:53:48;;;;;;;105.60;36.65;;;12.60;99.90;;;;;;5134837;27;20175;-69
2023/05/10 06:56:14;;;;;;;98.35;36.35;;;12.60;99.90;;;;;;5134687;27;20182;-69
2023/05/10 06:58:40;;;;;;;94.60;35.95;;;12.60;99.90;;;;;;5136361;27;20200;-69
2023/05/10 07:01:06;;;;;;;101.70;38.13;;;12.70;99.90;;;;;;5135688;27;20617;-69
2023/05/10 07:03:32;;;;;;;101.95;36.92;;;12.70;99.90;;;;;;5135936;27;20189;-69
2023/05/10 07:06:03;;;;;;;96.70;36.17;;;12.80;99.90;;;;;;5135735;27;20211;-69
2023/05/10 07:08:30;;;;;;;101.30;37.40;;;12.90;99.90;;;;;;5135694;27;20168;-69
2023/05/10 07:11:01;;;;;;;96.82;37.42;;;12.90;99.90;;;;;;5135456;27;20199;-69
2023/05/10 07:13:26;;;;;;;92.85;35.85;;;12.90;99.90;;;;;;5135632;27;20636;-68
2023/05/10 07:15:52;;;;;;;97.80;37.58;;;13.10;99.90;;;;;;5134297;27;20175;-68
2023/05/10 07:18:18;;;;;;;88.10;38.08;;;13.10;99.90;;;;;;5136053;27;20208;-68
2023/05/10 07:20:43;;;;;;;87.47;37.97;;;13.10;99.90;;;;;;5135452;27;20168;-68
2023/05/10 07:23:09;;;;;;;87.47;37.35;;;13.10;99.90;;;;;;5135513;27;20171;-68
2023/05/10 07:25:35;;;;;;;80.07;36.33;;;13.00;99.90;;;;;;5133985;27;20179;-69
2023/05/10 07:28:01;;;;;;;90.75;38.17;;;13.10;99.90;;;;;;5134148;27;20168;-68
2023/05/10 07:30:27;;;;;;;79.65;38.28;;;13.10;99.90;;;;;;5133994;27;20167;-69
2023/05/10 07:32:52;;;;;;;81.13;36.15;;;13.20;99.90;;;;;;5135272;27;20221;-68
2023/05/10 07:35:18;;;;;;;77.07;36.38;;;13.40;99.90;;;;;;5135502;27;20195;-68
2023/05/10 07:37:44;;;;;;;80.32;35.75;;;13.50;99.90;;;;;;5133876;27;20167;-69
2023/05/10 07:40:10;;;;;;;79.93;36.50;;;13.60;99.90;;;;;;5135749;27;20180;-72
2023/05/10 07:42:36;;;;;;;76.97;37.05;;;13.80;99.90;;;;;;5134938;27;20199;-70
2023/05/10 07:45:02;;;;;;;66.60;33.65;;;13.80;99.90;;;;;;5135307;27;20175;-71
2023/05/10 07:47:27;;;;;;;57.95;30.83;;;13.80;99.90;;;;;;5135020;27;20250;-70
2023/05/10 07:49:53;;;;;;;53.88;30.25;;;13.90;99.90;;;;;;5133679;27;20203;-71
2023/05/10 07:52:19;;;;;;;56.75;31.23;;;14.00;99.90;;;;;;5133691;27;20192;-70
2023/05/10 07:54:44;;;;;;;50.20;27.38;;;14.10;99.90;;;;;;5134897;27;20182;-71
2023/05/10 07:57:10;;;;;;;49.33;28.15;;;14.10;99.90;;;;;;5134725;27;20259;-70
2023/05/10 07:59:36;;;;;;;39.67;24.67;;;14.00;99.90;;;;;;5133511;27;20299;-70
2023/05/10 08:02:02;;;;;;;34.70;21.77;;;14.00;99.90;;;;;;5133314;27;20222;-70
2023/05/10 08:04:27;;;;;;;33.53;19.60;;;14.00;99.90;;;;;;5133337;27;20647;-70
2023/05/10 08:06:53;;;;;;;30.17;19.60;;;14.10;99.90;;;;;;5133425;27;20178;-70
2023/05/10 08:09:23;;;;;;;29.38;19.08;;;14.20;99.90;;;;;;5134956;27;20168;-70
2023/05/10 08:11:49;;;;;;;29.73;20.15;;;14.50;99.90;;;;;;5134475;27;20188;-70
2023/05/10 08:14:15;;;;;;;34.95;20.30;;;14.90;99.90;;;;;;5134700;27;20176;-70
2023/05/10 08:16:41;;;;;;;28.67;18.38;;;15.00;99.90;;;;;;5134489;27;20202;-70
2023/05/10 08:19:06;;;;;;;27.08;17.92;;;15.10;99.90;;;;;;5134371;27;20231;-70
2023/05/10 08:21:32;;;;;;;30.83;19.63;;;15.10;99.90;;;;;;5134754;27;20659;-70
2023/05/10 08:23:58;;;;;;;31.38;18.73;;;14.90;99.90;;;;;;5133174;27;20224;-70
2023/05/10 08:26:24;;;;;;;31.25;17.67;;;14.70;99.90;;;;;;5132945;27;20225;-70
2023/05/10 08:28:49;;;;;;;35.80;21.30;;;14.60;99.90;;;;;;5134781;27;20186;-70
2023/05/10 08:31:15;;;;;;;28.60;19.45;;;14.50;99.90;;;;;;5134922;27;20199;-70
2023/05/10 08:33:41;;;;;;;29.35;18.40;;;14.40;99.90;;;;;;5134346;27;20179;-69
2023/05/10 08:36:07;;;;;;;29.73;16.60;;;14.40;99.90;;;;;;5134277;27;20179;-70
2023/05/10 08:38:32;;;;;;;24.13;15.32;;;14.50;99.90;;;;;;5134891;27;20652;-69
2023/05/10 08:40:59;;;;;;;20.85;12.82;;;15.00;99.90;;;;;;5135271;27;20195;-68
2023/05/10 08:43:29;;;;;;;20.50;12.60;;;15.90;99.90;;;;;;5135076;28;20172;-68
2023/05/10 08:45:56;;;;;;;17.17;10.98;;;16.60;99.90;;;;;;5133188;28;20172;-70
2023/05/10 08:48:24;;;;;;;16.20;10.80;;;16.90;99.90;;;;;;5134821;27;20560;-70
2023/05/10 08:50:56;;;;;;;16.40;9.95;;;16.70;99.90;;;;;;5133126;28;20203;-70
2023/05/10 08:53:25;;;;;;;16.45;10.73;;;16.20;99.90;;;;;;5134405;27;20160;-70
2023/05/10 08:55:51;;;;;;;14.98;10.90;;;15.90;99.90;;;;;;5134632;27;20242;-70
2023/05/10 08:58:17;;;;;;;18.88;11.63;;;15.50;99.90;;;;;;5134427;27;20272;-70
2023/05/10 09:00:43;;;;;;;14.52;11.13;;;15.40;99.90;;;;;;5134040;27;20244;-70
2023/05/10 09:03:09;;;;;;;20.48;11.48;;;15.20;99.90;;;;;;5136050;27;20192;-67
2023/05/10 09:05:36;;;;;;;18.85;11.95;;;15.00;99.90;;;;;;5136938;27;20184;-67
2023/05/10 09:08:02;;;;;;;17.42;11.82;;;15.00;99.90;;;;;;5139031;27;20171;-70
2023/05/10 09:10:29;;;;;;;20.67;13.82;;;15.10;99.90;;;;;;5138174;27;20168;-70
2023/05/10 09:12:58;;;;;;;20.20;12.98;;;15.90;99.90;;;;;;5138522;27;20174;-72
2023/05/10 09:15:24;;;;;;;16.58;10.75;;;16.80;99.90;;;;;;5138756;27;20188;-70
2023/05/10 09:17:50;;;;;;;17.27;11.07;;;17.50;99.90;;;;;;5137585;27;20188;-70
2023/05/10 09:20:17;;;;;;;14.73;10.30;;;17.90;99.90;;;;;;5137075;27;20179;-72
2023/05/10 09:22:43;;;;;;;16.90;9.77;;;18.30;99.90;;;;;;5139063;27;20271;-70
2023/05/10 09:25:15;;;;;;;15.38;9.68;;;18.10;99.90;;;;;;5137978;27;20172;-70
2023/05/10 09:27:45;;;;;;;14.50;9.35;;;17.80;99.90;;;;;;5136432;27;20248;-70
2023/05/10 09:30:15;;;;;;;11.38;8.00;;;18.20;99.90;;;;;;5136542;27;20248;-70
2023/05/10 09:32:43;;;;;;;13.57;8.50;;;18.70;99.90;;;;;;5137902;27;20188;-70
2023/05/10 09:35:11;;;;;;;11.90;6.85;;;19.40;99.90;;;;;;5137751;27;20184;-70
2023/05/10 09:37:41;;;;;;;10.85;6.10;;;19.90;10.00;;;;;;5137770;27;20540;-71
2023/05/10 09:40:10;;;;;;;10.10;6.70;;;20.50;99.90;;;;;;5137379;27;20191;-71
2023/05/10 09:42:36;;;;;;;10.90;7.55;;;20.50;1.00;;;;;;5136156;27;20274;-71
2023/05/10 09:45:06;;;;;;;12.57;8.43;;;20.10;1.00;;;;;;5136221;27;20214;-71
2023/05/10 09:47:33;;;;;;;10.00;7.07;;;19.30;7.30;;;;;;5136279;27;20179;-71
2023/05/10 09:50:04;;;;;;;14.85;8.70;;;18.80;99.90;;;;;;5136088;27;20267;-71
2023/05/10 09:52:52;;;;;;;15.55;8.73;;;18.40;99.90;;;;;;5137338;27;20198;-71
2023/05/10 09:55:23;;;;;;;13.93;8.85;;;17.70;99.90;;;;;;5137457;27;20159;-70
2023/05/10 09:57:58;;;;;;;13.18;8.50;;;17.40;99.90;;;;;;5137269;27;20188;-70
2023/05/10 10:00:24;;;;;;;13.93;8.98;;;17.00;99.90;;;;;;5136009;27;20171;-70
2023/05/10 10:03:00;;;;;;;14.50;9.93;;;16.90;99.90;;;;;;5137052;27;20272;-70
2023/05/10 10:05:33;;;;;;;15.38;9.55;;;17.00;99.90;;;;;;5137099;27;20251;-70
2023/05/10 10:08:00;;;;;;;16.52;8.60;;;16.90;99.90;;;;;;5137482;27;20665;-70
2023/05/10 10:10:27;;;;;;;12.00;8.18;;;17.10;99.90;;;;;;5135625;27;20218;-70
2023/05/10 10:12:53;;;;;;;12.68;8.18;;;17.10;99.90;;;;;;5136382;27;20230;-70
2023/05/10 10:15:21;;;;;;;11.98;7.65;;;17.00;99.90;;;;;;5136585;27;20221;-70
2023/05/10 10:17:47;;;;;;;12.23;7.40;;;17.20;99.90;;;;;;5136961;27;20689;-70
2023/05/10 10:20:15;;;;;;;11.27;7.03;;;17.30;99.90;;;;;;5136721;27;20199;-70
2023/05/10 10:22:40;;;;;;;12.68;7.55;;;17.60;99.90;;;;;;5135476;27;20192;-71
2023/05/10 10:25:08;;;;;;;9.65;6.75;;;17.50;99.90;;;;;;5137133;27;20628;-71
2023/05/10 10:27:54;;;;;;;9.07;6.55;;;17.50;99.90;;;;;;5135449;27;20671;-71
2023/05/10 10:30:41;;;;;;;9.63;5.95;;;17.60;99.90;;;;;;5129070;27;20192;-71
2023/05/10 10:33:32;;;;;;;8.10;5.82;;;17.60;99.90;;;;;;5136925;27;20156;-71
2023/05/10 10:36:03;;;;;;;8.05;5.85;;;17.80;99.90;;;;;;5135291;27;20211;-71
2023/05/10 10:38:47;;;;;;;7.60;5.57;;;18.30;99.90;;;;;;5136633;27;20194;-71
2023/05/10 10:41:34;;;;;;;10.25;5.30;;;18.60;99.90;;;;;;5136487;27;20184;-71
2023/05/10 10:44:22;;;;;;;9.80;6.07;;;18.50;53.70;;;;;;5136698;27;20156;-71
2023/05/10 10:47:05;;;;;;;10.55;6.15;;;18.30;78.80;;;;;;5135208;27;20172;-71
2023/05/10 10:49:33;;;;;;;10.15;6.50;;;18.20;99.90;;;;;;5135147;27;20163;-71
2023/05/10 10:52:20;;;;;;;13.85;5.63;;;17.90;99.90;;;;;;5136447;27;20192;-72
2023/05/10 10:54:56;;;;;;;13.18;7.45;;;17.60;99.90;;;;;;5136364;27;20179;-72
2023/05/10 10:57:22;;;;;;;10.40;7.07;;;17.20;99.90;;;;;;5135075;27;20168;-69
2023/05/10 10:59:48;;;;;;;10.80;6.75;;;16.90;99.90;;;;;;5136897;27;20638;-71
2023/05/10 11:02:41;;;;;;;10.02;7.07;;;16.80;99.90;;;;;;5134969;27;20211;-71
2023/05/10 11:05:36;;;;;;;9.48;6.55;;;16.70;99.90;;;;;;5120451;27;20187;-71
2023/05/10 11:08:11;;;;;;;10.63;6.88;;;16.70;99.90;;;;;;5137524;27;20179;-72
2023/05/10 11:10:37;;;;;;;11.05;7.95;;;16.80;99.90;;;;;;5136071;27;20179;-71
2023/05/10 11:13:10;;;;;;;10.82;7.68;;;17.00;99.90;;;;;;5136886;27;20221;-72
2023/05/10 11:15:38;;;;;;;11.07;7.60;;;17.30;99.90;;;;;;5137142;27;20164;-72
2023/05/10 11:18:20;;;;;;;13.93;7.40;;;17.60;99.90;;;;;;5136336;27;20163;-72
2023/05/10 11:21:15;;;;;;;16.95;8.88;;;17.60;99.90;;;;;;5136141;27;20805;-72
2023/05/10 11:23:43;;;;;;;15.43;9.15;;;17.40;99.90;;;;;;5132909;27;20187;-72
2023/05/10 11:26:10;;;;;;;20.08;10.10;;;17.10;99.90;;;;;;5135350;27;20163;-71
2023/05/10 11:28:45;;;;;;;18.33;11.73;;;16.80;99.90;;;;;;5134304;27;20270;-72
2023/05/10 11:31:14;;;;;;;24.83;13.90;;;16.40;99.90;;;;;;5135772;27;20655;-72
2023/05/10 11:33:44;;;;;;;23.42;14.35;;;16.20;99.90;;;;;;5134200;27;20658;-72
2023/05/10 11:36:28;;;;;;;27.80;14.30;;;16.00;99.90;;;;;;5134126;27;20179;-72
2023/05/10 11:38:56;;;;;;;22.92;13.27;;;15.90;99.90;;;;;;5134026;27;20199;-72
2023/05/10 11:41:22;;;;;;;20.38;14.02;;;16.00;99.90;;;;;;5135144;27;20183;-72
2023/05/10 11:43:52;;;;;;;22.25;12.55;;;16.00;99.90;;;;;;5135781;27;20519;-72
2023/05/10 11:46:20;;;;;;;26.83;14.00;;;16.20;99.90;;;;;;5135238;27;20198;-72
2023/05/10 11:48:50;;;;;;;21.92;12.60;;;16.60;99.90;;;;;;5133964;27;20275;-72
2023/05/10 11:51:23;;;;;;;21.08;13.68;;;16.90;99.90;;;;;;5135909;27;20728;-72
2023/05/10 11:53:51;;;;;;;20.55;12.85;;;16.80;99.90;;;;;;5135642;27;20640;-72
2023/05/10 11:56:16;;;;;;;18.95;11.55;;;16.70;99.90;;;;;;5135266;27;20175;-72
2023/05/10 11:58:42;;;;;;;18.05;11.60;;;16.60;99.90;;;;;;5135323;27;20558;-72
2023/05/10 12:01:10;;;;;;;15.60;10.23;;;16.50;99.90;;;;;;5134897;27;20195;-72
2023/05/10 12:03:36;;;;;;;18.52;10.00;;;16.30;99.90;;;;;;5135052;27;20155;-72
2023/05/10 12:06:03;;;;;;;17.58;9.93;;;16.40;99.90;;;;;;5134485;27;20227;-72
2023/05/10 12:08:30;;;;;;;18.13;9.27;;;16.20;99.90;;;;;;5135047;27;20316;-72
2023/05/10 12:11:08;;;;;;;16.55;9.77;;;16.10;99.90;;;;;;5134645;27;20191;-72
2023/05/10 12:13:41;;;;;;;13.90;8.48;;;16.10;99.90;;;;;;5133401;27;20175;-72
2023/05/10 12:16:21;;;;;;;16.33;9.57;;;16.10;99.90;;;;;;5133204;27;20172;-68
2023/05/10 12:18:52;;;;;;;15.98;8.68;;;16.20;99.90;;;;;;5133336;27;20206;-68
2023/05/10 12:21:19;;;;;;;14.02;9.23;;;16.30;99.90;;;;;;5134679;27;20636;-68
2023/05/10 12:23:46;;;;;;;14.27;9.52;;;16.50;99.90;;;;;;5134707;27;20186;-68
2023/05/10 12:26:12;;;;;;;21.10;11.20;;;16.60;99.90;;;;;;5134490;27;20251;-68
2023/05/10 12:28:41;;;;;;;19.08;12.48;;;16.70;99.90;;;;;;5133048;27;20205;-68
2023/05/10 12:31:07;;;;;;;18.52;13.00;;;16.80;99.90;;;;;;5133365;27;20535;-68
2023/05/10 12:33:42;;;;;;;18.25;13.30;;;16.80;99.90;;;;;;5134376;27;20175;-68
2023/05/10 12:36:09;;;;;;;19.73;13.50;;;16.80;99.90;;;;;;5132519;27;20213;-68
2023/05/10 12:38:48;;;;;;;18.80;13.02;;;16.60;99.90;;;;;;5134182;27;20188;-68
2023/05/10 12:41:16;;;;;;;19.20;14.35;;;16.60;99.90;;;;;;5134935;27;20191;-68